sensor_id;sensor_type;location;lat;lon;timestamp;P1;durP1;ratioP1;P2;durP2;ratioP2
66886;SDS011;53798;51.680;5.976;2022-11-21T00:01:24;66.55;;;32.25;;
66886;SDS011;53798;51.680;5.976;2022-11-21T00:03:54;66.50;;;33.33;;
66886;SDS011;53798;51.680;5.976;2022-11-21T00:06:21;68.68;;;32.70;;
66886;SDS011;53798;51.680;5.976;2022-11-21T00:08:49;73.32;;;33.97;;
66886;SDS011;53798;51.680;5.976;2022-11-21T00:11:17;76.55;;;35.47;;
66886;SDS011;53798;51.680;5.976;2022-11-21T00:13:44;67.93;;;33.10;;
66886;SDS011;53798;51.680;5.976;2022-11-21T00:16:12;69.18;;;33.08;;
66886;SDS011;53798;51.680;5.976;2022-11-21T00:18:41;72.43;;;35.30;;
66886;SDS011;53798;51.680;5.976;2022-11-21T00:21:11;72.72;;;34.15;;
66886;SDS011;53798;51.680;5.976;2022-11-21T00:23:44;73.50;;;34.60;;
66886;SDS011;53798;51.680;5.976;2022-11-21T00:26:13;80.28;;;36.20;;
66886;SDS011;53798;51.680;5.976;2022-11-21T00:28:42;81.45;;;34.95;;
66886;SDS011;53798;51.680;5.976;2022-11-21T00:31:20;79.75;;;35.13;;
66886;SDS011;53798;51.680;5.976;2022-11-21T00:33:49;83.20;;;37.83;;
66886;SDS011;53798;51.680;5.976;2022-11-21T00:36:16;78.57;;;33.22;;
66886;SDS011;53798;51.680;5.976;2022-11-21T00:38:43;81.93;;;35.70;;
66886;SDS011;53798;51.680;5.976;2022-11-21T00:41:10;87.20;;;35.60;;
66886;SDS011;53798;51.680;5.976;2022-11-21T00:43:37;88.30;;;35.88;;
66886;SDS011;53798;51.680;5.976;2022-11-21T00:46:04;89.93;;;35.83;;
66886;SDS011;53798;51.680;5.976;2022-11-21T00:48:31;96.00;;;37.47;;
66886;SDS011;53798;51.680;5.976;2022-11-21T00:50:58;110.90;;;39.60;;
66886;SDS011;53798;51.680;5.976;2022-11-21T00:53:26;100.60;;;38.65;;
66886;SDS011;53798;51.680;5.976;2022-11-21T00:55:55;105.35;;;39.65;;
66886;SDS011;53798;51.680;5.976;2022-11-21T00:58:23;102.13;;;39.45;;
66886;SDS011;53798;51.680;5.976;2022-11-21T01:00:50;101.63;;;38.28;;
66886;SDS011;53798;51.680;5.976;2022-11-21T01:03:17;96.30;;;39.13;;
66886;SDS011;53798;51.680;5.976;2022-11-21T01:05:45;110.38;;;38.90;;
66886;SDS011;53798;51.680;5.976;2022-11-21T01:08:12;100.65;;;39.58;;
66886;SDS011;53798;51.680;5.976;2022-11-21T01:10:39;108.82;;;39.75;;
66886;SDS011;53798;51.680;5.976;2022-11-21T01:13:06;115.45;;;39.58;;
66886;SDS011;53798;51.680;5.976;2022-11-21T01:15:33;111.13;;;40.20;;
66886;SDS011;53798;51.680;5.976;2022-11-21T01:18:00;105.53;;;38.75;;
66886;SDS011;53798;51.680;5.976;2022-11-21T01:20:27;115.63;;;39.03;;
66886;SDS011;53798;51.680;5.976;2022-11-21T01:22:54;101.20;;;38.83;;
66886;SDS011;53798;51.680;5.976;2022-11-21T01:25:21;129.73;;;39.97;;
66886;SDS011;53798;51.680;5.976;2022-11-21T01:27:48;119.95;;;40.05;;
66886;SDS011;53798;51.680;5.976;2022-11-21T01:30:15;149.02;;;42.55;;
66886;SDS011;53798;51.680;5.976;2022-11-21T01:32:44;148.90;;;41.75;;
66886;SDS011;53798;51.680;5.976;2022-11-21T01:35:15;130.23;;;41.13;;
66886;SDS011;53798;51.680;5.976;2022-11-21T01:37:46;131.32;;;41.08;;
66886;SDS011;53798;51.680;5.976;2022-11-21T01:40:14;124.55;;;39.58;;
66886;SDS011;53798;51.680;5.976;2022-11-21T01:51:03;141.57;;;41.15;;
66886;SDS011;53798;51.680;5.976;2022-11-21T01:53:38;189.63;;;42.03;;
66886;SDS011;53798;51.680;5.976;2022-11-21T01:56:09;238.23;;;44.55;;
66886;SDS011;53798;51.680;5.976;2022-11-21T01:58:37;195.20;;;44.88;;
66886;SDS011;53798;51.680;5.976;2022-11-21T02:01:08;226.95;;;46.03;;
66886;SDS011;53798;51.680;5.976;2022-11-21T02:03:38;251.93;;;45.90;;
66886;SDS011;53798;51.680;5.976;2022-11-21T02:06:09;275.85;;;47.83;;
66886;SDS011;53798;51.680;5.976;2022-11-21T02:08:39;207.88;;;44.05;;
66886;SDS011;53798;51.680;5.976;2022-11-21T02:11:29;203.70;;;44.55;;
66886;SDS011;53798;51.680;5.976;2022-11-21T02:16:33;326.20;;;48.72;;
66886;SDS011;53798;51.680;5.976;2022-11-21T02:19:01;404.17;;;53.75;;
66886;SDS011;53798;51.680;5.976;2022-11-21T02:24:25;267.25;;;46.90;;
66886;SDS011;53798;51.680;5.976;2022-11-21T02:27:01;351.02;;;51.22;;
66886;SDS011;53798;51.680;5.976;2022-11-21T02:29:29;235.60;;;45.13;;
66886;SDS011;53798;51.680;5.976;2022-11-21T02:32:03;199.77;;;44.47;;
66886;SDS011;53798;51.680;5.976;2022-11-21T02:34:32;551.28;;;62.65;;
66886;SDS011;53798;51.680;5.976;2022-11-21T02:37:00;376.63;;;54.78;;
66886;SDS011;53798;51.680;5.976;2022-11-21T02:39:29;338.10;;;50.10;;
66886;SDS011;53798;51.680;5.976;2022-11-21T02:45:24;196.13;;;36.30;;
66886;SDS011;53798;51.680;5.976;2022-11-21T02:47:41;129.68;;;30.90;;
66886;SDS011;53798;51.680;5.976;2022-11-21T02:50:12;137.73;;;29.55;;
66886;SDS011;53798;51.680;5.976;2022-11-21T02:52:46;150.85;;;30.33;;
66886;SDS011;53798;51.680;5.976;2022-11-21T02:55:13;161.95;;;32.10;;
66886;SDS011;53798;51.680;5.976;2022-11-21T02:57:41;185.55;;;33.70;;
66886;SDS011;53798;51.680;5.976;2022-11-21T03:00:10;169.02;;;33.40;;
66886;SDS011;53798;51.680;5.976;2022-11-21T03:02:38;112.32;;;31.60;;
66886;SDS011;53798;51.680;5.976;2022-11-21T03:05:07;226.13;;;35.78;;
66886;SDS011;53798;51.680;5.976;2022-11-21T03:07:41;154.65;;;33.97;;
66886;SDS011;53798;51.680;5.976;2022-11-21T03:10:08;119.68;;;33.03;;
66886;SDS011;53798;51.680;5.976;2022-11-21T03:12:37;181.32;;;35.40;;
66886;SDS011;53798;51.680;5.976;2022-11-21T03:15:06;197.68;;;36.10;;
66886;SDS011;53798;51.680;5.976;2022-11-21T03:17:36;194.13;;;37.13;;
66886;SDS011;53798;51.680;5.976;2022-11-21T03:20:04;133.63;;;33.45;;
66886;SDS011;53798;51.680;5.976;2022-11-21T03:22:34;167.23;;;33.17;;
66886;SDS011;53798;51.680;5.976;2022-11-21T03:25:04;224.52;;;35.70;;
66886;SDS011;53798;51.680;5.976;2022-11-21T03:27:33;104.65;;;31.40;;
66886;SDS011;53798;51.680;5.976;2022-11-21T03:30:02;94.00;;;30.60;;
66886;SDS011;53798;51.680;5.976;2022-11-21T03:32:30;154.00;;;34.78;;
66886;SDS011;53798;51.680;5.976;2022-11-21T03:34:57;199.95;;;35.67;;
66886;SDS011;53798;51.680;5.976;2022-11-21T03:37:25;134.27;;;33.42;;
66886;SDS011;53798;51.680;5.976;2022-11-21T03:39:55;175.50;;;35.65;;
66886;SDS011;53798;51.680;5.976;2022-11-21T03:42:22;149.32;;;33.05;;
66886;SDS011;53798;51.680;5.976;2022-11-21T03:44:49;163.77;;;33.33;;
66886;SDS011;53798;51.680;5.976;2022-11-21T03:47:16;228.27;;;37.47;;
66886;SDS011;53798;51.680;5.976;2022-11-21T03:49:43;279.48;;;38.90;;
66886;SDS011;53798;51.680;5.976;2022-11-21T03:52:10;169.07;;;33.13;;
66886;SDS011;53798;51.680;5.976;2022-11-21T03:54:37;188.88;;;34.63;;
66886;SDS011;53798;51.680;5.976;2022-11-21T03:57:05;139.55;;;32.75;;
66886;SDS011;53798;51.680;5.976;2022-11-21T03:59:31;226.60;;;35.72;;
66886;SDS011;53798;51.680;5.976;2022-11-21T04:01:59;165.07;;;34.35;;
66886;SDS011;53798;51.680;5.976;2022-11-21T04:04:26;282.98;;;37.28;;
66886;SDS011;53798;51.680;5.976;2022-11-21T04:06:53;145.98;;;32.92;;
66886;SDS011;53798;51.680;5.976;2022-11-21T04:09:20;280.60;;;38.92;;
66886;SDS011;53798;51.680;5.976;2022-11-21T04:11:47;117.38;;;32.70;;
66886;SDS011;53798;51.680;5.976;2022-11-21T04:14:14;335.48;;;41.33;;
66886;SDS011;53798;51.680;5.976;2022-11-21T04:16:42;181.95;;;36.10;;
66886;SDS011;53798;51.680;5.976;2022-11-21T04:19:13;258.38;;;37.80;;
66886;SDS011;53798;51.680;5.976;2022-11-21T04:21:43;288.13;;;37.45;;
66886;SDS011;53798;51.680;5.976;2022-11-21T04:24:10;101.25;;;30.55;;
66886;SDS011;53798;51.680;5.976;2022-11-21T04:26:38;117.57;;;28.20;;
66886;SDS011;53798;51.680;5.976;2022-11-21T04:29:05;90.80;;;27.55;;
66886;SDS011;53798;51.680;5.976;2022-11-21T04:31:32;91.20;;;28.58;;
66886;SDS011;53798;51.680;5.976;2022-11-21T04:33:59;88.00;;;28.83;;
66886;SDS011;53798;51.680;5.976;2022-11-21T04:36:26;98.55;;;28.40;;
66886;SDS011;53798;51.680;5.976;2022-11-21T04:38:53;103.93;;;27.75;;
66886;SDS011;53798;51.680;5.976;2022-11-21T04:41:20;135.45;;;30.05;;
66886;SDS011;53798;51.680;5.976;2022-11-21T04:43:48;87.32;;;27.88;;
66886;SDS011;53798;51.680;5.976;2022-11-21T04:46:15;93.75;;;28.73;;
66886;SDS011;53798;51.680;5.976;2022-11-21T04:48:42;90.43;;;27.80;;
66886;SDS011;53798;51.680;5.976;2022-11-21T04:51:09;120.22;;;28.90;;
66886;SDS011;53798;51.680;5.976;2022-11-21T04:53:36;120.82;;;30.20;;
66886;SDS011;53798;51.680;5.976;2022-11-21T04:56:08;189.73;;;34.20;;
66886;SDS011;53798;51.680;5.976;2022-11-21T04:58:36;181.82;;;33.40;;
66886;SDS011;53798;51.680;5.976;2022-11-21T05:01:06;436.58;;;43.45;;
66886;SDS011;53798;51.680;5.976;2022-11-21T05:03:35;242.63;;;37.45;;
66886;SDS011;53798;51.680;5.976;2022-11-21T05:06:02;148.73;;;32.92;;
66886;SDS011;53798;51.680;5.976;2022-11-21T05:08:29;202.50;;;37.00;;
66886;SDS011;53798;51.680;5.976;2022-11-21T05:10:56;153.27;;;34.50;;
66886;SDS011;53798;51.680;5.976;2022-11-21T05:13:46;279.92;;;38.80;;
66886;SDS011;53798;51.680;5.976;2022-11-21T05:16:13;294.55;;;39.63;;
66886;SDS011;53798;51.680;5.976;2022-11-21T05:18:43;278.88;;;36.97;;
66886;SDS011;53798;51.680;5.976;2022-11-21T05:21:10;245.85;;;38.13;;
66886;SDS011;53798;51.680;5.976;2022-11-21T05:23:38;550.35;;;50.42;;
66886;SDS011;53798;51.680;5.976;2022-11-21T05:26:05;323.38;;;42.00;;
66886;SDS011;53798;51.680;5.976;2022-11-21T05:28:32;208.60;;;36.08;;
66886;SDS011;53798;51.680;5.976;2022-11-21T05:30:59;364.15;;;43.03;;
66886;SDS011;53798;51.680;5.976;2022-11-21T05:33:26;321.13;;;40.83;;
66886;SDS011;53798;51.680;5.976;2022-11-21T05:35:53;244.32;;;35.97;;
66886;SDS011;53798;51.680;5.976;2022-11-21T05:38:20;189.30;;;34.60;;
66886;SDS011;53798;51.680;5.976;2022-11-21T05:40:47;344.38;;;39.58;;
66886;SDS011;53798;51.680;5.976;2022-11-21T05:43:14;225.05;;;36.42;;
66886;SDS011;53798;51.680;5.976;2022-11-21T05:46:00;349.63;;;40.35;;
66886;SDS011;53798;51.680;5.976;2022-11-21T05:48:28;294.98;;;39.13;;
66886;SDS011;53798;51.680;5.976;2022-11-21T05:50:55;278.92;;;37.45;;
66886;SDS011;53798;51.680;5.976;2022-11-21T05:53:22;345.95;;;40.75;;
66886;SDS011;53798;51.680;5.976;2022-11-21T05:56:05;315.65;;;39.90;;
66886;SDS011;53798;51.680;5.976;2022-11-21T05:58:35;396.75;;;42.83;;
66886;SDS011;53798;51.680;5.976;2022-11-21T06:01:02;325.55;;;42.00;;
66886;SDS011;53798;51.680;5.976;2022-11-21T06:03:36;229.77;;;37.60;;
66886;SDS011;53798;51.680;5.976;2022-11-21T06:06:09;359.48;;;49.78;;
66886;SDS011;53798;51.680;5.976;2022-11-21T06:08:41;533.22;;;50.17;;
66886;SDS011;53798;51.680;5.976;2022-11-21T06:11:11;439.25;;;42.40;;
66886;SDS011;53798;51.680;5.976;2022-11-21T06:13:41;224.85;;;33.50;;
66886;SDS011;53798;51.680;5.976;2022-11-21T06:16:10;451.20;;;44.42;;
66886;SDS011;53798;51.680;5.976;2022-11-21T06:18:43;177.50;;;32.22;;
66886;SDS011;53798;51.680;5.976;2022-11-21T06:21:14;355.95;;;39.58;;
66886;SDS011;53798;51.680;5.976;2022-11-21T06:23:44;154.65;;;31.70;;
66886;SDS011;53798;51.680;5.976;2022-11-21T06:26:13;226.55;;;33.70;;
66886;SDS011;53798;51.680;5.976;2022-11-21T06:28:43;297.65;;;37.72;;
66886;SDS011;53798;51.680;5.976;2022-11-21T06:33:49;544.92;;;48.30;;
66886;SDS011;53798;51.680;5.976;2022-11-21T06:36:19;135.80;;;32.22;;
66886;SDS011;53798;51.680;5.976;2022-11-21T06:38:46;298.05;;;36.38;;
66886;SDS011;53798;51.680;5.976;2022-11-21T06:41:16;291.60;;;37.25;;
66886;SDS011;53798;51.680;5.976;2022-11-21T06:43:49;414.60;;;44.92;;
66886;SDS011;53798;51.680;5.976;2022-11-21T06:46:17;364.25;;;39.88;;
66886;SDS011;53798;51.680;5.976;2022-11-21T06:48:45;359.75;;;41.53;;
66886;SDS011;53798;51.680;5.976;2022-11-21T06:51:19;258.13;;;36.80;;
66886;SDS011;53798;51.680;5.976;2022-11-21T06:53:54;273.17;;;38.47;;
66886;SDS011;53798;51.680;5.976;2022-11-21T06:56:24;430.93;;;42.97;;
66886;SDS011;53798;51.680;5.976;2022-11-21T06:58:54;292.63;;;36.97;;
66886;SDS011;53798;51.680;5.976;2022-11-21T07:01:23;278.67;;;36.22;;
66886;SDS011;53798;51.680;5.976;2022-11-21T07:03:51;377.55;;;41.15;;
66886;SDS011;53798;51.680;5.976;2022-11-21T07:06:19;477.70;;;43.60;;
66886;SDS011;53798;51.680;5.976;2022-11-21T07:08:50;437.88;;;45.65;;
66886;SDS011;53798;51.680;5.976;2022-11-21T07:11:40;320.48;;;36.95;;
66886;SDS011;53798;51.680;5.976;2022-11-21T07:14:07;320.42;;;37.20;;
66886;SDS011;53798;51.680;5.976;2022-11-21T07:16:35;315.42;;;34.92;;
66886;SDS011;53798;51.680;5.976;2022-11-21T07:19:03;251.00;;;35.08;;
66886;SDS011;53798;51.680;5.976;2022-11-21T07:21:30;473.65;;;42.63;;
66886;SDS011;53798;51.680;5.976;2022-11-21T07:23:57;335.27;;;38.00;;
66886;SDS011;53798;51.680;5.976;2022-11-21T07:26:25;472.30;;;44.92;;
66886;SDS011;53798;51.680;5.976;2022-11-21T07:28:53;385.15;;;41.75;;
66886;SDS011;53798;51.680;5.976;2022-11-21T07:31:20;388.08;;;42.60;;
66886;SDS011;53798;51.680;5.976;2022-11-21T07:33:47;451.13;;;45.03;;
66886;SDS011;53798;51.680;5.976;2022-11-21T07:36:14;352.60;;;40.45;;
66886;SDS011;53798;51.680;5.976;2022-11-21T07:38:41;308.42;;;38.60;;
66886;SDS011;53798;51.680;5.976;2022-11-21T07:41:08;430.17;;;44.17;;
66886;SDS011;53798;51.680;5.976;2022-11-21T07:43:35;478.55;;;45.28;;
66886;SDS011;53798;51.680;5.976;2022-11-21T07:46:05;522.08;;;48.88;;
66886;SDS011;53798;51.680;5.976;2022-11-21T07:48:32;431.40;;;42.08;;
66886;SDS011;53798;51.680;5.976;2022-11-21T07:51:01;211.05;;;34.47;;
66886;SDS011;53798;51.680;5.976;2022-11-21T07:53:30;285.77;;;36.30;;
66886;SDS011;53798;51.680;5.976;2022-11-21T07:55:58;321.00;;;37.08;;
66886;SDS011;53798;51.680;5.976;2022-11-21T07:58:25;189.13;;;31.88;;
66886;SDS011;53798;51.680;5.976;2022-11-21T08:00:53;173.00;;;33.05;;
66886;SDS011;53798;51.680;5.976;2022-11-21T08:03:20;273.58;;;37.70;;
66886;SDS011;53798;51.680;5.976;2022-11-21T08:05:48;508.92;;;47.17;;
66886;SDS011;53798;51.680;5.976;2022-11-21T08:08:15;173.75;;;34.10;;
66886;SDS011;53798;51.680;5.976;2022-11-21T08:10:44;289.98;;;37.70;;
66886;SDS011;53798;51.680;5.976;2022-11-21T08:13:12;246.57;;;38.40;;
66886;SDS011;53798;51.680;5.976;2022-11-21T08:15:40;363.23;;;43.65;;
66886;SDS011;53798;51.680;5.976;2022-11-21T08:18:14;337.55;;;43.85;;
66886;SDS011;53798;51.680;5.976;2022-11-21T08:20:46;232.07;;;37.75;;
66886;SDS011;53798;51.680;5.976;2022-11-21T08:23:13;235.98;;;36.70;;
66886;SDS011;53798;51.680;5.976;2022-11-21T08:25:41;174.60;;;34.13;;
66886;SDS011;53798;51.680;5.976;2022-11-21T08:28:09;245.65;;;35.60;;
66886;SDS011;53798;51.680;5.976;2022-11-21T08:30:38;251.30;;;35.55;;
66886;SDS011;53798;51.680;5.976;2022-11-21T08:33:06;281.42;;;37.42;;
66886;SDS011;53798;51.680;5.976;2022-11-21T08:35:36;130.85;;;31.95;;
66886;SDS011;53798;51.680;5.976;2022-11-21T08:38:04;218.30;;;35.53;;
66886;SDS011;53798;51.680;5.976;2022-11-21T08:40:32;240.30;;;38.90;;
66886;SDS011;53798;51.680;5.976;2022-11-21T08:43:04;175.25;;;34.55;;
66886;SDS011;53798;51.680;5.976;2022-11-21T08:45:34;180.88;;;33.80;;
66886;SDS011;53798;51.680;5.976;2022-11-21T08:48:08;143.73;;;32.30;;
66886;SDS011;53798;51.680;5.976;2022-11-21T08:50:37;154.50;;;33.38;;
66886;SDS011;53798;51.680;5.976;2022-11-21T08:53:04;136.60;;;32.63;;
66886;SDS011;53798;51.680;5.976;2022-11-21T08:55:31;122.80;;;30.85;;
66886;SDS011;53798;51.680;5.976;2022-11-21T08:57:58;165.70;;;33.10;;
66886;SDS011;53798;51.680;5.976;2022-11-21T09:00:25;145.90;;;32.60;;
66886;SDS011;53798;51.680;5.976;2022-11-21T09:02:52;138.88;;;33.80;;
66886;SDS011;53798;51.680;5.976;2022-11-21T09:05:20;132.60;;;32.25;;
66886;SDS011;53798;51.680;5.976;2022-11-21T09:07:47;120.88;;;34.58;;
66886;SDS011;53798;51.680;5.976;2022-11-21T09:10:14;124.70;;;33.53;;
66886;SDS011;53798;51.680;5.976;2022-11-21T09:12:41;110.10;;;32.50;;
66886;SDS011;53798;51.680;5.976;2022-11-21T09:15:09;131.27;;;33.80;;
66886;SDS011;53798;51.680;5.976;2022-11-21T09:17:59;110.78;;;33.72;;
66886;SDS011;53798;51.680;5.976;2022-11-21T09:20:37;118.70;;;33.55;;
66886;SDS011;53798;51.680;5.976;2022-11-21T09:23:08;109.93;;;32.95;;
66886;SDS011;53798;51.680;5.976;2022-11-21T09:25:39;112.25;;;32.53;;
66886;SDS011;53798;51.680;5.976;2022-11-21T09:28:08;129.65;;;33.58;;
66886;SDS011;53798;51.680;5.976;2022-11-21T09:30:39;141.23;;;33.85;;
66886;SDS011;53798;51.680;5.976;2022-11-21T09:33:12;123.72;;;34.92;;
66886;SDS011;53798;51.680;5.976;2022-11-21T09:35:42;93.88;;;31.67;;
66886;SDS011;53798;51.680;5.976;2022-11-21T09:38:10;106.03;;;30.77;;
66886;SDS011;53798;51.680;5.976;2022-11-21T09:40:38;119.75;;;32.75;;
66886;SDS011;53798;51.680;5.976;2022-11-21T09:43:22;107.07;;;31.35;;
66886;SDS011;53798;51.680;5.976;2022-11-21T09:46:09;83.55;;;29.38;;
66886;SDS011;53798;51.680;5.976;2022-11-21T09:51:30;78.15;;;29.25;;
66886;SDS011;53798;51.680;5.976;2022-11-21T09:56:48;68.50;;;28.17;;
66886;SDS011;53798;51.680;5.976;2022-11-21T10:01:58;83.85;;;29.77;;
66886;SDS011;53798;51.680;5.976;2022-11-21T10:04:26;74.70;;;29.75;;
66886;SDS011;53798;51.680;5.976;2022-11-21T10:06:59;79.38;;;31.30;;
66886;SDS011;53798;51.680;5.976;2022-11-21T10:23:52;50.17;;;25.75;;
66886;SDS011;53798;51.680;5.976;2022-11-21T10:26:51;58.95;;;28.23;;
66886;SDS011;53798;51.680;5.976;2022-11-21T10:29:27;46.35;;;22.15;;
66886;SDS011;53798;51.680;5.976;2022-11-21T10:32:14;41.60;;;25.27;;
66886;SDS011;53798;51.680;5.976;2022-11-21T10:34:52;35.35;;;21.70;;
66886;SDS011;53798;51.680;5.976;2022-11-21T10:37:34;38.38;;;20.80;;
66886;SDS011;53798;51.680;5.976;2022-11-21T10:43:25;33.13;;;19.13;;
66886;SDS011;53798;51.680;5.976;2022-11-21T10:46:28;34.45;;;18.67;;
66886;SDS011;53798;51.680;5.976;2022-11-21T10:48:56;152.80;;;77.13;;
66886;SDS011;53798;51.680;5.976;2022-11-21T10:57:32;22.50;;;15.57;;
66886;SDS011;53798;51.680;5.976;2022-11-21T11:00:13;28.40;;;17.02;;
66886;SDS011;53798;51.680;5.976;2022-11-21T11:05:22;24.65;;;16.92;;
66886;SDS011;53798;51.680;5.976;2022-11-21T11:08:05;26.52;;;17.48;;
66886;SDS011;53798;51.680;5.976;2022-11-21T11:13:14;25.92;;;20.00;;
66886;SDS011;53798;51.680;5.976;2022-11-21T11:16:17;37.45;;;28.25;;
66886;SDS011;53798;51.680;5.976;2022-11-21T11:21:59;36.10;;;12.07;;
66886;SDS011;53798;51.680;5.976;2022-11-21T11:24:27;19.50;;;10.20;;
66886;SDS011;53798;51.680;5.976;2022-11-21T11:26:56;18.13;;;10.57;;
66886;SDS011;53798;51.680;5.976;2022-11-21T11:29:27;23.60;;;14.15;;
66886;SDS011;53798;51.680;5.976;2022-11-21T11:31:59;20.00;;;11.85;;
66886;SDS011;53798;51.680;5.976;2022-11-21T11:34:57;33.03;;;23.80;;
66886;SDS011;53798;51.680;5.976;2022-11-21T11:37:48;23.48;;;14.40;;
66886;SDS011;53798;51.680;5.976;2022-11-21T11:40:34;20.70;;;13.90;;
66886;SDS011;53798;51.680;5.976;2022-11-21T11:43:25;22.45;;;12.05;;
66886;SDS011;53798;51.680;5.976;2022-11-21T11:49:59;20.80;;;12.77;;
66886;SDS011;53798;51.680;5.976;2022-11-21T11:58:51;12.73;;;8.18;;
66886;SDS011;53798;51.680;5.976;2022-11-21T12:04:28;32.92;;;14.70;;
66886;SDS011;53798;51.680;5.976;2022-11-21T12:07:30;13.02;;;8.18;;
66886;SDS011;53798;51.680;5.976;2022-11-21T12:10:44;17.75;;;11.52;;
66886;SDS011;53798;51.680;5.976;2022-11-21T12:14:00;17.02;;;11.50;;
66886;SDS011;53798;51.680;5.976;2022-11-21T12:17:03;26.83;;;20.65;;
66886;SDS011;53798;51.680;5.976;2022-11-21T12:19:42;13.98;;;6.45;;
66886;SDS011;53798;51.680;5.976;2022-11-21T12:22:10;13.75;;;6.00;;
66886;SDS011;53798;51.680;5.976;2022-11-21T12:24:39;14.80;;;6.70;;
66886;SDS011;53798;51.680;5.976;2022-11-21T12:27:20;10.95;;;5.25;;
66886;SDS011;53798;51.680;5.976;2022-11-21T12:33:22;11.93;;;5.30;;
66886;SDS011;53798;51.680;5.976;2022-11-21T12:36:32;11.73;;;4.13;;
66886;SDS011;53798;51.680;5.976;2022-11-21T12:45:33;16.25;;;5.22;;
66886;SDS011;53798;51.680;5.976;2022-11-21T12:51:37;11.55;;;6.20;;
66886;SDS011;53798;51.680;5.976;2022-11-21T13:03:22;9.52;;;4.15;;
66886;SDS011;53798;51.680;5.976;2022-11-21T13:06:05;10.73;;;4.90;;
66886;SDS011;53798;51.680;5.976;2022-11-21T13:08:42;11.52;;;4.22;;
66886;SDS011;53798;51.680;5.976;2022-11-21T13:11:19;14.88;;;5.70;;
66886;SDS011;53798;51.680;5.976;2022-11-21T13:14:28;13.65;;;4.93;;
66886;SDS011;53798;51.680;5.976;2022-11-21T13:20:10;13.32;;;6.38;;
66886;SDS011;53798;51.680;5.976;2022-11-21T13:22:46;13.02;;;5.07;;
66886;SDS011;53798;51.680;5.976;2022-11-21T13:30:49;13.95;;;5.40;;
66886;SDS011;53798;51.680;5.976;2022-11-21T13:36:04;10.93;;;5.10;;
66886;SDS011;53798;51.680;5.976;2022-11-21T13:42:07;12.95;;;4.85;;
66886;SDS011;53798;51.680;5.976;2022-11-21T13:50:38;16.45;;;8.27;;
66886;SDS011;53798;51.680;5.976;2022-11-21T13:56:17;14.18;;;4.95;;
66886;SDS011;53798;51.680;5.976;2022-11-21T14:05:35;11.40;;;3.70;;
66886;SDS011;53798;51.680;5.976;2022-11-21T14:08:12;11.05;;;3.58;;
66886;SDS011;53798;51.680;5.976;2022-11-21T14:10:54;7.70;;;3.47;;
66886;SDS011;53798;51.680;5.976;2022-11-21T14:13:28;10.02;;;4.20;;
66886;SDS011;53798;51.680;5.976;2022-11-21T14:18:36;15.60;;;4.88;;
66886;SDS011;53798;51.680;5.976;2022-11-21T14:21:17;13.07;;;7.22;;
66886;SDS011;53798;51.680;5.976;2022-11-21T14:23:56;8.55;;;4.13;;
66886;SDS011;53798;51.680;5.976;2022-11-21T14:26:33;9.13;;;4.05;;
66886;SDS011;53798;51.680;5.976;2022-11-21T14:29:30;10.57;;;5.60;;
66886;SDS011;53798;51.680;5.976;2022-11-21T14:32:12;9.18;;;3.00;;
66886;SDS011;53798;51.680;5.976;2022-11-21T14:34:40;6.90;;;2.70;;
66886;SDS011;53798;51.680;5.976;2022-11-21T14:37:09;9.73;;;2.70;;
66886;SDS011;53798;51.680;5.976;2022-11-21T14:39:39;7.38;;;2.40;;
66886;SDS011;53798;51.680;5.976;2022-11-21T14:42:11;11.15;;;2.97;;
66886;SDS011;53798;51.680;5.976;2022-11-21T14:44:42;7.85;;;2.72;;
66886;SDS011;53798;51.680;5.976;2022-11-21T14:49:53;43.08;;;28.90;;
66886;SDS011;53798;51.680;5.976;2022-11-21T14:52:29;5.18;;;2.05;;
66886;SDS011;53798;51.680;5.976;2022-11-21T14:55:03;7.35;;;2.33;;
66886;SDS011;53798;51.680;5.976;2022-11-21T14:57:52;7.75;;;4.57;;
66886;SDS011;53798;51.680;5.976;2022-11-21T15:00:22;9.95;;;2.20;;
66886;SDS011;53798;51.680;5.976;2022-11-21T15:03:21;5.13;;;2.10;;
66886;SDS011;53798;51.680;5.976;2022-11-21T15:05:56;8.10;;;2.00;;
66886;SDS011;53798;51.680;5.976;2022-11-21T15:08:32;10.63;;;2.10;;
66886;SDS011;53798;51.680;5.976;2022-11-21T15:11:33;8.88;;;1.70;;
66886;SDS011;53798;51.680;5.976;2022-11-21T15:14:29;5.72;;;1.80;;
66886;SDS011;53798;51.680;5.976;2022-11-21T15:17:01;5.85;;;1.80;;
66886;SDS011;53798;51.680;5.976;2022-11-21T15:19:34;10.32;;;2.17;;
66886;SDS011;53798;51.680;5.976;2022-11-21T15:22:02;4.43;;;1.52;;
66886;SDS011;53798;51.680;5.976;2022-11-21T15:25:03;8.90;;;1.65;;
66886;SDS011;53798;51.680;5.976;2022-11-21T15:27:43;5.88;;;1.55;;
66886;SDS011;53798;51.680;5.976;2022-11-21T15:41:23;7.38;;;1.60;;
66886;SDS011;53798;51.680;5.976;2022-11-21T15:46:27;6.30;;;1.70;;
66886;SDS011;53798;51.680;5.976;2022-11-21T15:49:08;3.38;;;1.60;;
66886;SDS011;53798;51.680;5.976;2022-11-21T15:51:58;5.47;;;2.30;;
66886;SDS011;53798;51.680;5.976;2022-11-21T15:57:07;6.68;;;1.63;;
66886;SDS011;53798;51.680;5.976;2022-11-21T15:59:35;8.27;;;1.80;;
66886;SDS011;53798;51.680;5.976;2022-11-21T16:02:02;12.07;;;1.90;;
66886;SDS011;53798;51.680;5.976;2022-11-21T16:04:29;5.78;;;2.30;;
66886;SDS011;53798;51.680;5.976;2022-11-21T16:06:56;4.03;;;1.80;;
66886;SDS011;53798;51.680;5.976;2022-11-21T16:09:27;11.82;;;6.10;;
66886;SDS011;53798;51.680;5.976;2022-11-21T16:11:55;7.70;;;2.20;;
66886;SDS011;53798;51.680;5.976;2022-11-21T16:14:22;4.35;;;2.25;;
66886;SDS011;53798;51.680;5.976;2022-11-21T16:16:49;5.50;;;2.67;;
66886;SDS011;53798;51.680;5.976;2022-11-21T16:19:16;8.70;;;2.20;;
66886;SDS011;53798;51.680;5.976;2022-11-21T16:21:43;7.13;;;2.03;;
66886;SDS011;53798;51.680;5.976;2022-11-21T16:24:10;6.05;;;2.10;;
66886;SDS011;53798;51.680;5.976;2022-11-21T16:26:37;4.65;;;2.17;;
66886;SDS011;53798;51.680;5.976;2022-11-21T16:29:05;6.53;;;2.10;;
66886;SDS011;53798;51.680;5.976;2022-11-21T16:31:32;5.80;;;2.90;;
66886;SDS011;53798;51.680;5.976;2022-11-21T16:34:00;5.07;;;2.38;;
66886;SDS011;53798;51.680;5.976;2022-11-21T16:36:28;8.27;;;2.90;;
66886;SDS011;53798;51.680;5.976;2022-11-21T16:38:57;6.30;;;2.40;;
66886;SDS011;53798;51.680;5.976;2022-11-21T16:41:33;9.20;;;2.90;;
66886;SDS011;53798;51.680;5.976;2022-11-21T16:44:00;5.78;;;2.40;;
66886;SDS011;53798;51.680;5.976;2022-11-21T16:46:28;9.52;;;2.65;;
66886;SDS011;53798;51.680;5.976;2022-11-21T16:48:57;9.07;;;3.38;;
66886;SDS011;53798;51.680;5.976;2022-11-21T16:51:27;7.13;;;2.65;;
66886;SDS011;53798;51.680;5.976;2022-11-21T16:53:55;6.97;;;2.30;;
66886;SDS011;53798;51.680;5.976;2022-11-21T16:58:58;6.80;;;2.40;;
66886;SDS011;53798;51.680;5.976;2022-11-21T17:01:25;6.97;;;2.63;;
66886;SDS011;53798;51.680;5.976;2022-11-21T17:03:54;7.53;;;2.22;;
66886;SDS011;53798;51.680;5.976;2022-11-21T17:06:22;6.70;;;2.00;;
66886;SDS011;53798;51.680;5.976;2022-11-21T17:08:54;7.13;;;1.90;;
66886;SDS011;53798;51.680;5.976;2022-11-21T17:11:24;8.75;;;2.10;;
66886;SDS011;53798;51.680;5.976;2022-11-21T17:13:55;5.03;;;2.30;;
66886;SDS011;53798;51.680;5.976;2022-11-21T17:16:32;7.97;;;2.00;;